Wetterdaten: August 2013
Datum Temp Feuchte Luftdruck Regen Wind Richtung Sonnenschein UV Solar Windben
01.08.2013 21,3 C 78 % 1015,2 hPa 0,0 l/m 0,8 km/h S 11,50 h 3,7 UV-I 439 W/m 4,8 km/h
02.08.2013 25,5 C 65 % 1011,5 hPa 0,0 l/m 2,1 km/h S-SO 12,50 h 3,4 UV-I 445 W/m 4,8 km/h
03.08.2013 21,6 C 72 % 1017,2 hPa 0,8 l/m 1,3 km/h S 3,42 h 2,4 UV-I 226 W/m 9,6 km/h
04.08.2013 19,0 C 69 % 1020,1 hPa 0,0 l/m 0,3 km/h N-NW 8,75 h 2,9 UV-I 389 W/m 2,4 km/h
05.08.2013 22,4 C 66 % 1014,8 hPa 0,0 l/m 3,0 km/h SO 11,35 h 3,3 UV-I 431 W/m 8,1 km/h
06.08.2013 20,0 C 75 % 1013,9 hPa 0,4 l/m 1,6 km/h NW 8,42 h 3,5 UV-I 376 W/m 8,4 km/h
07.08.2013 20,4 C 83 % 1010,3 hPa 0,0 l/m 2,9 km/h SO 4,08 h 2,6 UV-I 264 W/m 10,8 km/h
08.08.2013 15,1 C 93 % 1016,9 hPa 1,2 l/m 1,1 km/h W 0,58 h 1,4 UV-I 130 W/m 7,7 km/h
09.08.2013 15,6 C 79 % 1019,6 hPa 0,0 l/m 0,1 km/h S-SW 7,50 h 2,3 UV-I 329 W/m 1,2 km/h
10.08.2013 17,0 C 72 % 1018,4 hPa 0,2 l/m 1,1 km/h NW 2,75 h 2,2 UV-I 231 W/m 7,6 km/h
11.08.2013 15,7 C 75 % 1017,3 hPa 0,2 l/m 2,6 km/h S-SW 2,00 h 2,0 UV-I 219 W/m 10,9 km/h
12.08.2013 15,5 C 84 % 1013,7 hPa 1,8 l/m 1,6 km/h S-SW 2,17 h 2,1 UV-I 205 W/m 7,3 km/h
13.08.2013 13,0 C 86 % 1017,7 hPa 5,0 l/m 1,4 km/h W-NW 3,42 h 1,9 UV-I 243 W/m 6,8 km/h
14.08.2013 14,0 C 78 % 1022,4 hPa 0,0 l/m 1,1 km/h NW 6,17 h 2,3 UV-I 327 W/m 5,7 km/h
15.08.2013 16,3 C 78 % 1021,3 hPa 0,0 l/m 0,5 km/h S-SW 5,58 h 2,3 UV-I 261 W/m 2,4 km/h
16.08.2013 19,4 C 64 % 1016,3 hPa 0,0 l/m 3,7 km/h S-SO 11,08 h 2,9 UV-I 427 W/m 6,0 km/h
17.08.2013 18,6 C 79 % 1013,8 hPa 0,0 l/m 0,5 km/h NW 4,00 h 2,4 UV-I 265 W/m 2,8 km/h
18.08.2013 17,5 C 88 % 1012,0 hPa 4,2 l/m 3,2 km/h S 0,08 h 1,1 UV-I 112 W/m 6,4 km/h
19.08.2013 15,1 C 95 % 1016,5 hPa 14,8 l/m 2,5 km/h NW 1,50 h 1,8 UV-I 181 W/m 12,1 km/h
20.08.2013 13,5 C 85 % 1027,3 hPa 0,2 l/m 2,0 km/h NW 4,33 h 2,3 UV-I 297 W/m 5,6 km/h
21.08.2013 14,0 C 84 % 1024,7 hPa 0,0 l/m 0,0 km/h O 7,50 h 2,2 UV-I 291 W/m 0,0 km/h
22.08.2013 16,7 C 79 % 1019,4 hPa 0,0 l/m 0,0 km/h NW 9,23 h 2,6 UV-I 358 W/m 0,4 km/h
23.08.2013 17,8 C 69 % 1017,3 hPa 0,0 l/m 5,2 km/h SO 4,17 h 1,9 UV-I 243 W/m 14,1 km/h
24.08.2013 19,1 C 68 % 1011,7 hPa 0,0 l/m 5,6 km/h SO 8,83 h 2,4 UV-I 332 W/m 13,7 km/h
25.08.2013 19,1 C 63 % 1011,8 hPa 0,0 l/m 0,5 km/h NO 7,25 h 2,2 UV-I 303 W/m 8,1 km/h
26.08.2013 15,2 C 68 % 1015,9 hPa 0,0 l/m 3,3 km/h N-NO 7,67 h 2,5 UV-I 344 W/m 10,1 km/h
27.08.2013 15,1 C 72 % 1015,7 hPa 0,0 l/m 0,3 km/h NO 5,42 h 2,1 UV-I 290 W/m 2,0 km/h
28.08.2013 14,3 C 82 % 1019,2 hPa 0,0 l/m 2,3 km/h N-NO 3,42 h 1,9 UV-I 235 W/m 5,2 km/h
29.08.2013 15,3 C 76 % 1021,1 hPa 0,0 l/m 0,0 km/h S-SO 6,50 h 2,1 UV-I 270 W/m 0,4 km/h
30.08.2013 17,1 C 69 % 1019,0 hPa 0,0 l/m 1,3 km/h W-NW 8,08 h 2,2 UV-I 308 W/m 5,2 km/h
31.08.2013 14,3 C 94 % 1020,0 hPa 5,6 l/m 0,9 km/h N-NW 0,92 h 1,3 UV-I 132 W/m 6,9 km/h
Min-Datum 15.08.13 04.08.13 07.08.13 11 Tage 01.08.13 - - - - 01.08.13
Min-Zeit 06:40 17:35 19:30 - 00:00 - - - - 00:00
Minimum 6,8 C 30 % 1008,1 hPa - 0,0 km/h - - - - 0,0 km/h
Max-Datum 02.08.13 01.08.13 20.08.13 19.08.13 18.08.13 - 02.08.13 01.08.13 11.08.13 06.08.13
Max-Zeit 15:45 06:20 23:10 08:00 15:40 - 19:35 13:05 13:15 03:25
Maximum 32,9 C 98 % 1028,1 hPa 14,8 l/m 23,8 km/h
S
- 12,42 h 6,7 UV-I 1063 W/m 41,8 km/h
NW
Durchschnitt 17,2 C 77 % 1017,2 hPa #34,4 l/m 1,7 km/h S #180:10 h 2,3 UV-I 287 W/m 6,4 km/h

Durchschnitt Minimum Temp.11,8 C
Durchschnitt Maximum Temp.23,4 C